createdAt,value
2022-08-22T00:01:57.555Z,100026.88
2022-08-22T00:02:45.175Z,100059.16
2022-08-22T00:05:34.175Z,100024.21
2022-08-22T00:09:29.091Z,100019.70
2022-08-22T00:12:47.376Z,100019.27
2022-08-22T00:15:45.283Z,100020.39
2022-08-22T00:18:55.362Z,100019.88
2022-08-22T00:22:06.046Z,100021.09
2022-08-22T00:25:33.150Z,100022.70
2022-08-22T00:28:17.523Z,100027.36
2022-08-22T00:31:37.223Z,100025.34
2022-08-22T00:34:16.610Z,100027.85
2022-08-22T00:37:31.665Z,100031.95
2022-08-22T00:40:28.770Z,100033.20
2022-08-22T00:43:32.220Z,100029.62
2022-08-22T00:46:50.420Z,100031.47
2022-08-22T00:50:20.282Z,100025.06
2022-08-22T00:53:37.846Z,100022.31
2022-08-22T00:57:14.661Z,100016.45
2022-08-22T00:59:52.836Z,100018.23
2022-08-22T01:02:52.528Z,100019.98
2022-08-22T01:05:44.579Z,100015.46
2022-08-22T01:08:56.091Z,100015.28
2022-08-22T01:11:57.135Z,100008.04
2022-08-22T01:15:12.528Z,100011.77
2022-08-22T01:18:45.953Z,100007.85
2022-08-22T01:22:00.805Z,100009.46
2022-08-22T01:25:11.771Z,100006.20
2022-08-22T01:28:30.411Z,100003.12
2022-08-22T01:31:51.764Z,100009.94
2022-08-22T01:35:28.968Z,100013.86
2022-08-22T01:38:43.008Z,100006.52
2022-08-22T01:41:49.480Z,100006.29
2022-08-22T01:45:20.146Z,100003.70
2022-08-22T01:48:15.404Z,100004.21
2022-08-22T01:51:00.319Z,100005.10
2022-08-22T01:54:30.096Z,100005.19
2022-08-22T01:57:14.015Z,100005.64
2022-08-22T01:59:53.702Z,100009.34
2022-08-22T02:03:02.376Z,100006.05
2022-08-22T02:05:43.790Z,100009.27
2022-08-22T02:08:22.314Z,100006.60
2022-08-22T02:11:25.591Z,100012.08
2022-08-22T02:14:31.818Z,100014.98
2022-08-22T02:17:35.888Z,100019.02
2022-08-22T02:20:42.109Z,100022.21
2022-08-22T02:24:00.397Z,100019.33
2022-08-22T02:27:15.935Z,100027.52
2022-08-22T02:30:52.181Z,100021.52
2022-08-22T02:33:59.445Z,100024.83
2022-08-22T02:37:23.115Z,100024.56
2022-08-22T02:40:52.833Z,100028.55
2022-08-22T02:43:51.325Z,100032.44
2022-08-22T02:47:06.122Z,100029.45
2022-08-22T02:50:27.056Z,100025.56
2022-08-22T02:53:54.700Z,100028.75
2022-08-22T02:57:01.335Z,100031.20
2022-08-22T03:00:43.151Z,100031.73
2022-08-22T03:03:48.682Z,100032.95
2022-08-22T03:07:11.454Z,100034.85
2022-08-22T03:10:38.647Z,100031.63
2022-08-22T03:14:08.343Z,100035.49
2022-08-22T03:17:35.702Z,100030.84
2022-08-22T03:21:00.981Z,100030.63
2022-08-22T03:24:10.621Z,100034.17
2022-08-22T03:26:56.799Z,100035.26
2022-08-22T03:29:45.700Z,100038.60
2022-08-22T03:32:45.483Z,100040.52
2022-08-22T03:35:45.325Z,100042.81
2022-08-22T03:39:23.020Z,100038.42
2022-08-22T03:42:42.022Z,100041.88
2022-08-22T03:46:18.606Z,100043.21
2022-08-22T03:49:25.743Z,100045.79
2022-08-22T03:52:26.956Z,100048.02
2022-08-22T03:55:48.864Z,100045.29
2022-08-22T03:59:01.138Z,100043.66
2022-08-22T04:01:56.873Z,100046.91
2022-08-22T04:05:00.691Z,100048.64
2022-08-22T04:08:04.979Z,100047.57
2022-08-22T04:10:55.593Z,100048.91
2022-08-22T04:13:50.326Z,100046.36
2022-08-22T04:17:04.174Z,100045.06
2022-08-22T04:20:27.683Z,100045.79
2022-08-22T04:23:25.347Z,100048.05
2022-08-22T04:26:12.697Z,100044.23
2022-08-22T04:28:57.093Z,100051.23
2022-08-22T04:31:36.832Z,100051.44
2022-08-22T04:34:50.381Z,100049.13
2022-08-22T04:37:34.721Z,100054.84
2022-08-22T04:40:25.897Z,100055.15
2022-08-22T04:43:43.017Z,100049.55
2022-08-22T04:46:47.077Z,100050.66
2022-08-22T04:49:52.743Z,100055.81
2022-08-22T04:52:49.399Z,100055.38
2022-08-22T04:56:15.692Z,100054.05
2022-08-22T04:59:03.340Z,100051.50
2022-08-22T05:02:11.088Z,100054.95
2022-08-22T05:04:59.385Z,100056.20
2022-08-22T05:07:44.940Z,100055.30
2022-08-22T05:10:22.331Z,100052.98
2022-08-22T05:13:01.055Z,100051.41
2022-08-22T05:15:36.236Z,100054.94
2022-08-22T05:18:30.249Z,100055.59
2022-08-22T05:21:11.242Z,100052.08
2022-08-22T05:24:20.592Z,100055.95
2022-08-22T05:26:53.343Z,100056.53
2022-08-22T05:29:32.527Z,100057.51
2022-08-22T05:32:12.248Z,100057.39
2022-08-22T05:34:48.084Z,100061.84
2022-08-22T05:37:35.913Z,100068.86
2022-08-22T05:40:08.524Z,100066.01
2022-08-22T05:42:49.631Z,100069.81
2022-08-22T05:45:22.113Z,100073.02
2022-08-22T05:48:03.529Z,100074.14
2022-08-22T05:51:21.816Z,100075.17
2022-08-22T05:54:16.361Z,100077.73
2022-08-22T05:57:13.325Z,100078.94
2022-08-22T05:59:45.681Z,100081.87
2022-08-22T06:02:57.264Z,100083.00
2022-08-22T06:05:39.310Z,100080.80
2022-08-22T06:08:20.432Z,100085.74
2022-08-22T06:10:55.884Z,100085.72
2022-08-22T06:13:41.199Z,100088.39
2022-08-22T06:16:27.303Z,100089.70
2022-08-22T06:18:57.842Z,100091.31
2022-08-22T06:21:41.407Z,100093.14
2022-08-22T06:24:18.239Z,100090.91
2022-08-22T06:26:49.935Z,100093.96
2022-08-22T06:29:41.103Z,100092.30
2022-08-22T06:32:17.163Z,100092.46
2022-08-22T06:35:16.164Z,100089.50
2022-08-22T06:37:49.064Z,100093.42
2022-08-22T06:40:28.428Z,100099.05
2022-08-22T06:42:59.214Z,100098.23
2022-08-22T06:45:49.539Z,100100.49
2022-08-22T06:48:23.850Z,100102.30
2022-08-22T06:50:57.690Z,100101.88
2022-08-22T06:53:48.515Z,100106.21
2022-08-22T06:56:50.532Z,100107.16
2022-08-22T06:59:29.466Z,100106.52
2022-08-22T07:02:29.967Z,100105.52
2022-08-22T07:04:58.328Z,100106.52
2022-08-22T07:07:39.326Z,100099.31
2022-08-22T07:10:10.848Z,100107.19
2022-08-22T07:12:54.575Z,100106.93
2022-08-22T07:15:37.318Z,100103.48
2022-08-22T07:18:18.623Z,100097.39
2022-08-22T07:20:59.885Z,100098.23
2022-08-22T07:23:48.432Z,100096.37
2022-08-22T07:26:47.064Z,100097.71
2022-08-22T07:30:10.146Z,100100.77
2022-08-22T07:33:25.150Z,100096.73
2022-08-22T07:36:01.026Z,100103.04
2022-08-22T07:38:43.990Z,100101.08
2022-08-22T07:41:57.488Z,100103.14
2022-08-22T07:45:12.501Z,100105.27
2022-08-22T07:48:05.799Z,100102.14
2022-08-22T07:50:41.012Z,100093.83
2022-08-22T07:53:26.738Z,100088.70
2022-08-22T07:55:58.247Z,100089.71
2022-08-22T07:58:30.277Z,100092.60
2022-08-22T08:00:59.474Z,100095.61
2022-08-22T08:03:31.466Z,100089.35
2022-08-22T08:06:01.204Z,100100.33
2022-08-22T08:08:38.635Z,100100.89
2022-08-22T08:11:15.661Z,100096.95
2022-08-22T08:13:47.847Z,100100.35
2022-08-22T08:16:20.427Z,100099.47
2022-08-22T08:18:54.865Z,100099.87
2022-08-22T08:21:39.013Z,100102.61
2022-08-22T08:24:14.316Z,100102.90
2022-08-22T08:27:10.079Z,100101.36
2022-08-22T08:29:43.916Z,100099.95
2022-08-22T08:32:14.084Z,100105.80
2022-08-22T08:34:50.939Z,100101.38
2022-08-22T08:37:30.207Z,100103.11
2022-08-22T08:40:05.766Z,100098.85
2022-08-22T08:43:29.608Z,100100.90
2022-08-22T08:46:39.375Z,100103.15
2022-08-22T08:49:23.948Z,100094.32
2022-08-22T08:52:32.281Z,100094.52
2022-08-22T08:55:22.591Z,100091.13
2022-08-22T08:58:13.743Z,100090.80
2022-08-22T09:01:00.290Z,100093.95
2022-08-22T09:04:00.241Z,100094.79
2022-08-22T09:07:01.667Z,100096.14
2022-08-22T09:09:52.282Z,100092.73
2022-08-22T09:12:56.010Z,100092.17
2022-08-22T09:16:04.976Z,100088.22
2022-08-22T09:18:45.679Z,100089.02
2022-08-22T09:21:44.278Z,100091.75
2022-08-22T09:24:30.420Z,100088.08
2022-08-22T09:27:09.009Z,100079.30
2022-08-22T09:29:54.714Z,100084.52
2022-08-22T09:36:01.026Z,100079.61
2022-08-22T09:38:48.325Z,100077.59
2022-08-22T09:41:38.082Z,100080.34
2022-08-22T09:44:33.582Z,100079.09
2022-08-22T09:47:24.577Z,100080.68
2022-08-22T09:50:13.357Z,100073.69
2022-08-22T09:53:18.770Z,100081.09
2022-08-22T09:56:11.590Z,100082.91
2022-08-22T09:59:09.820Z,100082.32
2022-08-22T10:02:00.614Z,100079.73
2022-08-22T10:04:36.639Z,100079.16
2022-08-22T10:07:23.109Z,100081.20
2022-08-22T10:10:26.451Z,100079.33
2022-08-22T10:13:19.380Z,100078.19
2022-08-22T10:16:18.244Z,100078.55
2022-08-22T10:19:12.118Z,100078.68
2022-08-22T10:22:12.914Z,100074.86
2022-08-22T10:25:15.591Z,100075.69
2022-08-22T10:28:13.801Z,100078.05
2022-08-22T10:31:28.231Z,100079.40
2022-08-22T10:34:23.819Z,100080.50
2022-08-22T10:37:27.001Z,100081.65
2022-08-22T10:40:28.426Z,100083.70
2022-08-22T10:43:28.918Z,100084.10
2022-08-22T10:46:29.563Z,100082.60
2022-08-22T10:49:08.562Z,100080.84
2022-08-22T10:51:57.074Z,100078.39
2022-08-22T10:55:00.980Z,100077.15
2022-08-22T10:58:10.002Z,100076.90
2022-08-22T11:01:01.675Z,100076.55
2022-08-22T11:04:35.312Z,100077.11
2022-08-22T11:07:21.901Z,100079.40
2022-08-22T11:10:04.942Z,100077.20
2022-08-22T11:12:41.677Z,100076.33
2022-08-22T11:15:12.454Z,100076.84
2022-08-22T11:18:01.715Z,100074.55
2022-08-22T11:20:54.215Z,100073.83
2022-08-22T11:23:23.759Z,100078.90
2022-08-22T11:26:13.809Z,100078.52
2022-08-22T11:28:57.755Z,100079.30
2022-08-22T11:31:52.373Z,100079.68
2022-08-22T11:34:37.143Z,100086.55
2022-08-22T11:37:48.352Z,100089.08
2022-08-22T11:40:35.675Z,100089.58
2022-08-22T11:43:37.233Z,100087.05
2022-08-22T11:46:37.496Z,100086.56
2022-08-22T11:49:34.073Z,100087.13
2022-08-22T11:52:12.681Z,100088.60
2022-08-22T11:54:51.959Z,100088.69
2022-08-22T11:57:45.348Z,100087.83
2022-08-22T12:00:47.162Z,100087.58
2022-08-22T12:03:43.601Z,100086.77
2022-08-22T12:06:42.777Z,100089.44
2022-08-22T12:09:23.407Z,100091.77
2022-08-22T12:12:14.084Z,100090.52
2022-08-22T12:15:13.952Z,100084.75
2022-08-22T12:18:24.274Z,100095.75
2022-08-22T12:20:59.453Z,100094.14
2022-08-22T12:24:06.314Z,100087.20
2022-08-22T12:27:00.709Z,100086.52
2022-08-22T12:30:14.033Z,100087.59
2022-08-22T12:33:10.051Z,100077.22
2022-08-22T12:36:01.296Z,100079.02
2022-08-22T12:39:01.031Z,100079.92
2022-08-22T12:42:04.403Z,100081.20
2022-08-22T12:44:39.153Z,100078.73
2022-08-22T12:47:32.006Z,100080.73
2022-08-22T12:50:18.055Z,100076.61
2022-08-22T12:53:01.242Z,100080.91
2022-08-22T12:55:55.956Z,100078.68
2022-08-22T12:58:58.806Z,100074.70
2022-08-22T13:01:34.702Z,100077.25
2022-08-22T13:04:12.631Z,100076.78
2022-08-22T13:07:23.277Z,100076.87
2022-08-22T13:10:04.320Z,100076.45
2022-08-22T13:12:44.121Z,100075.33
2022-08-22T13:15:31.845Z,100077.84
2022-08-22T13:18:30.220Z,100072.32
2022-08-22T13:21:04.390Z,100073.54
2022-08-22T13:23:39.618Z,100077.00
2022-08-22T13:26:32.151Z,100079.55
2022-08-22T13:32:02.223Z,100074.70
2022-08-22T13:34:58.060Z,100075.26
2022-08-22T13:37:40.306Z,100078.18
2022-08-22T13:40:21.240Z,100077.95
2022-08-22T13:42:54.023Z,100076.68
2022-08-22T13:45:31.413Z,100076.91
2022-08-22T13:48:11.545Z,100074.91
2022-08-22T13:51:12.606Z,100077.30
2022-08-22T13:54:02.328Z,100075.55
2022-08-22T13:57:01.705Z,100072.23
2022-08-22T14:00:06.588Z,100073.60
2022-08-22T14:02:50.416Z,100072.73
2022-08-22T14:05:37.324Z,100068.80
2022-08-22T14:08:18.579Z,100068.81
2022-08-22T14:11:29.736Z,100068.21
2022-08-22T14:14:02.805Z,100071.52
2022-08-22T14:16:51.489Z,100067.77
2022-08-22T14:19:53.171Z,100068.22
2022-08-22T14:22:35.021Z,100064.05
2022-08-22T14:25:33.819Z,100059.65
2022-08-22T14:28:09.320Z,100061.45
2022-08-22T14:31:00.963Z,100063.29
2022-08-22T14:33:36.326Z,100062.41
2022-08-22T14:36:39.135Z,100061.18
2022-08-22T14:39:16.609Z,100061.95
2022-08-22T14:42:30.656Z,100062.88
2022-08-22T14:45:19.451Z,100063.86
2022-08-22T14:48:29.630Z,100065.66
2022-08-22T14:50:53.122Z,100066.56
2022-08-22T14:53:30.957Z,100061.09
2022-08-22T14:56:23.740Z,100056.54
2022-08-22T14:59:07.546Z,100060.08
2022-08-22T15:02:33.003Z,100060.00
2022-08-22T15:05:14.678Z,100055.70
2022-08-22T15:08:02.139Z,100057.86
2022-08-22T15:10:43.184Z,100061.85
2022-08-22T15:13:19.315Z,100060.63
2022-08-22T15:16:17.779Z,100064.27
2022-08-22T15:19:03.375Z,100064.14
2022-08-22T15:21:41.482Z,100064.35
2022-08-22T15:24:14.825Z,100058.65
2022-08-22T15:26:56.044Z,100058.93
2022-08-22T15:30:01.239Z,100055.40
2022-08-22T15:32:41.721Z,100058.71
2022-08-22T15:35:30.116Z,100055.85
2022-08-22T15:38:27.656Z,100058.22
2022-08-22T15:41:16.824Z,100056.05
2022-08-22T15:43:49.406Z,100052.42
2022-08-22T15:46:21.465Z,100052.44
2022-08-22T15:49:02.268Z,100052.90
2022-08-22T15:51:39.008Z,100052.54
2022-08-22T15:54:25.387Z,100049.31
2022-08-22T15:56:53.828Z,100053.17
2022-08-22T15:59:47.934Z,100054.92
2022-08-22T16:02:44.244Z,100059.09
2022-08-22T16:05:16.964Z,100057.52
2022-08-22T16:08:03.731Z,100057.91
2022-08-22T16:10:42.315Z,100059.10
2022-08-22T16:13:38.228Z,100055.23
2022-08-22T16:16:10.034Z,100054.84
2022-08-22T16:18:47.102Z,100054.39
2022-08-22T16:21:40.923Z,100053.84
2022-08-22T16:24:09.453Z,100057.98
2022-08-22T16:26:42.922Z,100059.75
2022-08-22T16:29:41.259Z,100060.92
2022-08-22T16:32:27.802Z,100067.02
2022-08-22T16:34:56.835Z,100065.92
2022-08-22T16:37:41.655Z,100065.84
2022-08-22T16:40:18.453Z,100059.81
2022-08-22T16:43:10.515Z,100055.95
2022-08-22T16:45:54.755Z,100056.30
2022-08-22T16:48:32.522Z,100060.33
2022-08-22T16:51:28.358Z,100061.08
2022-08-22T16:54:20.887Z,100059.30
2022-08-22T16:57:08.176Z,100061.33
2022-08-22T16:59:43.222Z,100064.95
2022-08-22T17:02:41.453Z,100066.73
2022-08-22T17:05:30.407Z,100071.14
2022-08-22T17:08:24.788Z,100067.95
2022-08-22T17:11:33.985Z,100070.85
2022-08-22T17:14:25.438Z,100070.73
2022-08-22T17:17:13.008Z,100076.51
2022-08-22T17:20:17.796Z,100074.55
2022-08-22T17:23:42.793Z,100077.98
2022-08-22T17:26:55.379Z,100074.14
2022-08-22T17:29:58.483Z,100074.27
2022-08-22T17:33:07.628Z,100078.98
2022-08-22T17:35:58.232Z,100076.27
2022-08-22T17:38:46.292Z,100077.26
2022-08-22T17:41:56.465Z,100081.75
2022-08-22T17:45:04.601Z,100080.27
2022-08-22T17:47:53.850Z,100077.92
2022-08-22T17:50:40.322Z,100079.50
2022-08-22T17:53:39.477Z,100083.02
2022-08-22T17:56:35.207Z,100081.54
2022-08-22T17:59:10.813Z,100082.92
2022-08-22T18:01:59.404Z,100083.48
2022-08-22T18:04:54.941Z,100087.66
2022-08-22T18:07:52.403Z,100089.75
2022-08-22T18:10:39.346Z,100088.77
2022-08-22T18:13:21.252Z,100091.14
2022-08-22T18:16:23.189Z,100086.99
2022-08-22T18:19:17.241Z,100090.38
2022-08-22T18:22:06.963Z,100090.95
2022-08-22T18:25:08.734Z,100090.95
2022-08-22T18:28:07.183Z,100088.58
2022-08-22T18:31:03.187Z,100091.84
2022-08-22T18:33:38.715Z,100092.09
2022-08-22T18:36:26.707Z,100089.49
2022-08-22T18:39:03.685Z,100088.48
2022-08-22T18:41:52.613Z,100088.41
2022-08-22T18:44:53.776Z,100093.60
2022-08-22T18:47:34.681Z,100092.63
2022-08-22T18:50:34.640Z,100100.33
2022-08-22T18:53:28.271Z,100095.05
2022-08-22T18:56:21.146Z,100101.08
2022-08-22T18:59:01.947Z,100102.64
2022-08-22T19:02:06.477Z,100104.20
2022-08-22T19:05:28.200Z,100106.33
2022-08-22T19:08:15.736Z,100104.04
2022-08-22T19:11:23.438Z,100107.82
2022-08-22T19:13:55.096Z,100108.32
2022-08-22T19:16:48.292Z,100106.58
2022-08-22T19:20:25.287Z,100098.25
2022-08-22T19:23:40.580Z,100094.51
2022-08-22T19:26:44.775Z,100097.27
2022-08-22T19:29:26.843Z,100094.67
2022-08-22T19:32:12.988Z,100090.09
2022-08-22T19:35:23.021Z,100090.84
2022-08-22T19:38:32.099Z,100090.75
2022-08-22T19:41:03.193Z,100091.75
2022-08-22T19:43:38.698Z,100092.64
2022-08-22T19:46:12.191Z,100094.66
2022-08-22T19:48:50.530Z,100091.67
2022-08-22T19:51:20.852Z,100094.95
2022-08-22T19:54:25.639Z,100096.32
2022-08-22T19:57:22.012Z,100097.95
2022-08-22T20:00:13.941Z,100098.73
2022-08-22T20:03:17.661Z,100088.71
2022-08-22T20:06:43.106Z,100087.20
2022-08-22T20:09:43.114Z,100095.59
2022-08-22T20:12:40.767Z,100094.86
2022-08-22T20:15:24.899Z,100097.67
2022-08-22T20:21:00.599Z,100089.27
2022-08-22T20:23:32.596Z,100089.00
2022-08-22T20:26:11.550Z,100088.61
2022-08-22T20:28:52.673Z,100088.16
2022-08-22T20:31:41.567Z,100081.92
2022-08-22T20:34:28.271Z,100081.48
2022-08-22T20:37:25.350Z,100079.66
2022-08-22T20:40:04.691Z,100071.45
2022-08-22T20:42:42.823Z,100070.34
2022-08-22T20:45:19.105Z,100071.04
2022-08-22T20:47:51.057Z,100063.17
2022-08-22T20:50:35.116Z,100055.73
2022-08-22T20:53:18.979Z,100056.73
2022-08-22T20:55:57.211Z,100053.88
2022-08-22T20:58:34.396Z,100058.08
2022-08-22T21:01:11.642Z,100055.59
2022-08-22T21:04:04.317Z,100055.98
2022-08-22T21:06:35.265Z,100057.97
2022-08-22T21:09:39.792Z,100054.96
2022-08-22T21:12:15.071Z,100057.77
2022-08-22T21:14:47.353Z,100052.52
2022-08-22T21:17:26.431Z,100048.66
2022-08-22T21:19:57.949Z,100046.40
2022-08-22T21:22:52.936Z,100046.73
2022-08-22T21:25:26.159Z,100037.05
2022-08-22T21:27:57.112Z,100035.60
2022-08-22T21:30:30.237Z,100033.76
2022-08-22T21:33:03.361Z,100036.67
2022-08-22T21:35:36.149Z,100040.15
2022-08-22T21:38:21.157Z,100037.92
2022-08-22T21:40:54.018Z,100036.49
2022-08-22T21:43:34.312Z,100032.67
2022-08-22T21:46:08.496Z,100035.02
2022-08-22T21:48:39.436Z,100036.36
2022-08-22T21:51:45.543Z,100036.66
2022-08-22T21:54:28.417Z,100036.88
2022-08-22T21:57:25.180Z,100033.46
2022-08-22T21:59:58.826Z,100029.64
2022-08-22T22:02:43.692Z,100025.94
2022-08-22T22:05:19.447Z,100022.36
2022-08-22T22:07:51.117Z,100027.94
2022-08-22T22:10:23.694Z,100030.52
2022-08-22T22:12:59.303Z,100029.59
2022-08-22T22:15:34.919Z,100030.30
2022-08-22T22:18:07.133Z,100034.17
2022-08-22T22:20:36.698Z,100036.39
2022-08-22T22:23:29.354Z,100031.86
2022-08-22T22:26:03.007Z,100029.64
2022-08-22T22:28:48.006Z,100031.66
2022-08-22T22:31:22.078Z,100029.45
2022-08-22T22:33:51.410Z,100024.63
2022-08-22T22:36:28.913Z,100022.16
2022-08-22T22:39:07.527Z,100020.23
2022-08-22T22:41:45.842Z,100022.59
2022-08-22T22:44:27.636Z,100020.84
2022-08-22T22:47:26.377Z,100017.55
2022-08-22T22:50:21.768Z,100020.55
2022-08-22T22:53:11.889Z,100018.87
2022-08-22T22:56:09.285Z,100028.31
2022-08-22T22:58:45.094Z,100024.77
2022-08-22T23:01:17.878Z,100024.23
2022-08-22T23:03:53.606Z,100017.23
2022-08-22T23:06:28.017Z,100013.75
2022-08-22T23:08:59.226Z,100012.45
2022-08-22T23:11:48.232Z,100004.45
2022-08-22T23:14:24.205Z,100006.99
2022-08-22T23:17:00.457Z,100003.30
2022-08-22T23:19:33.341Z,100008.64
2022-08-22T23:22:17.814Z,100005.08
2022-08-22T23:24:55.358Z,100002.83
2022-08-22T23:27:31.910Z,100002.29
2022-08-22T23:30:02.837Z,99998.14
2022-08-22T23:33:00.217Z,99995.02
2022-08-22T23:35:34.552Z,99992.73
2022-08-22T23:38:10.647Z,99992.60
2022-08-22T23:40:48.998Z,99988.09
2022-08-22T23:43:24.003Z,99985.77
2022-08-22T23:45:57.432Z,99988.38
2022-08-22T23:48:29.075Z,99986.77
2022-08-22T23:51:11.965Z,99989.19
2022-08-22T23:53:47.828Z,99989.81
2022-08-22T23:57:00.694Z,99988.54
2022-08-22T23:59:47.782Z,99987.25
